sensor_id;sensor_type;location;lat;lon;timestamp;temperature;humidity
11446;DHT22;5779;64.178;15.432;2024-03-17T00:02:36;-10.10;99.90
11446;DHT22;5779;64.178;15.432;2024-03-17T00:05:23;-10.30;99.90
11446;DHT22;5779;64.178;15.432;2024-03-17T00:08:09;-10.30;99.90
11446;DHT22;5779;64.178;15.432;2024-03-17T00:10:56;-10.10;99.90
11446;DHT22;5779;64.178;15.432;2024-03-17T00:13:43;-10.00;99.90
11446;DHT22;5779;64.178;15.432;2024-03-17T00:16:29;-10.10;99.90
11446;DHT22;5779;64.178;15.432;2024-03-17T00:19:15;-10.10;99.90
11446;DHT22;5779;64.178;15.432;2024-03-17T00:22:02;-10.10;99.90
11446;DHT22;5779;64.178;15.432;2024-03-17T00:24:48;-10.40;99.90
11446;DHT22;5779;64.178;15.432;2024-03-17T00:27:35;-10.50;99.90
11446;DHT22;5779;64.178;15.432;2024-03-17T00:30:26;-10.60;99.90
11446;DHT22;5779;64.178;15.432;2024-03-17T00:33:13;-10.80;99.90
11446;DHT22;5779;64.178;15.432;2024-03-17T00:35:59;-10.60;99.90
11446;DHT22;5779;64.178;15.432;2024-03-17T00:38:46;-10.60;99.90
11446;DHT22;5779;64.178;15.432;2024-03-17T00:41:32;-10.60;99.90
11446;DHT22;5779;64.178;15.432;2024-03-17T00:44:18;-10.60;99.90
11446;DHT22;5779;64.178;15.432;2024-03-17T00:47:06;-10.60;99.90
11446;DHT22;5779;64.178;15.432;2024-03-17T00:49:54;-10.50;99.90
11446;DHT22;5779;64.178;15.432;2024-03-17T00:52:39;-10.40;99.90
11446;DHT22;5779;64.178;15.432;2024-03-17T00:55:26;-10.20;99.90
11446;DHT22;5779;64.178;15.432;2024-03-17T00:58:12;-10.20;99.90
11446;DHT22;5779;64.178;15.432;2024-03-17T01:00:58;-10.20;99.90
11446;DHT22;5779;64.178;15.432;2024-03-17T01:03:46;-10.30;99.90
11446;DHT22;5779;64.178;15.432;2024-03-17T01:06:33;-10.40;99.90
11446;DHT22;5779;64.178;15.432;2024-03-17T01:09:19;-10.30;99.90
11446;DHT22;5779;64.178;15.432;2024-03-17T01:12:05;-10.30;99.90
11446;DHT22;5779;64.178;15.432;2024-03-17T01:14:52;-10.10;99.90
11446;DHT22;5779;64.178;15.432;2024-03-17T01:17:39;-10.30;99.90
11446;DHT22;5779;64.178;15.432;2024-03-17T01:20:27;-10.40;99.90
11446;DHT22;5779;64.178;15.432;2024-03-17T01:23:13;-10.80;99.90
11446;DHT22;5779;64.178;15.432;2024-03-17T01:26:00;-10.70;99.90
11446;DHT22;5779;64.178;15.432;2024-03-17T01:28:47;-10.60;99.90
11446;DHT22;5779;64.178;15.432;2024-03-17T01:31:32;-11.10;99.90
11446;DHT22;5779;64.178;15.432;2024-03-17T01:34:19;-11.40;99.90
11446;DHT22;5779;64.178;15.432;2024-03-17T01:37:08;-11.50;99.90
11446;DHT22;5779;64.178;15.432;2024-03-17T01:39:54;-11.20;99.90
11446;DHT22;5779;64.178;15.432;2024-03-17T01:42:41;-11.10;99.90
11446;DHT22;5779;64.178;15.432;2024-03-17T01:45:29;-11.00;99.90
11446;DHT22;5779;64.178;15.432;2024-03-17T01:48:16;-10.90;99.90
11446;DHT22;5779;64.178;15.432;2024-03-17T01:51:04;-10.80;99.90
11446;DHT22;5779;64.178;15.432;2024-03-17T01:53:52;-10.90;99.90
11446;DHT22;5779;64.178;15.432;2024-03-17T01:56:39;-11.00;99.90
11446;DHT22;5779;64.178;15.432;2024-03-17T01:59:25;-11.40;99.90
11446;DHT22;5779;64.178;15.432;2024-03-17T02:02:12;-11.60;99.90
11446;DHT22;5779;64.178;15.432;2024-03-17T02:04:57;-11.80;99.90
11446;DHT22;5779;64.178;15.432;2024-03-17T02:07:44;-11.70;99.90
11446;DHT22;5779;64.178;15.432;2024-03-17T02:10:31;-11.60;99.90
11446;DHT22;5779;64.178;15.432;2024-03-17T02:13:18;-11.60;99.90
11446;DHT22;5779;64.178;15.432;2024-03-17T02:16:04;-11.50;99.90
11446;DHT22;5779;64.178;15.432;2024-03-17T02:18:54;-11.10;99.90
11446;DHT22;5779;64.178;15.432;2024-03-17T02:21:40;-11.00;99.90
11446;DHT22;5779;64.178;15.432;2024-03-17T02:24:28;-11.10;99.90
11446;DHT22;5779;64.178;15.432;2024-03-17T02:27:14;-11.20;99.90
11446;DHT22;5779;64.178;15.432;2024-03-17T02:30:01;-11.10;99.90
11446;DHT22;5779;64.178;15.432;2024-03-17T02:32:52;-11.10;99.90
11446;DHT22;5779;64.178;15.432;2024-03-17T02:35:38;-11.30;99.90
11446;DHT22;5779;64.178;15.432;2024-03-17T02:38:25;-11.60;99.90
11446;DHT22;5779;64.178;15.432;2024-03-17T02:41:27;-11.70;99.90
11446;DHT22;5779;64.178;15.432;2024-03-17T02:44:14;-11.90;99.90
11446;DHT22;5779;64.178;15.432;2024-03-17T02:47:02;-11.70;99.90
11446;DHT22;5779;64.178;15.432;2024-03-17T02:49:49;-11.80;99.90
11446;DHT22;5779;64.178;15.432;2024-03-17T02:52:37;-11.70;99.90
11446;DHT22;5779;64.178;15.432;2024-03-17T02:55:24;-12.10;99.90
11446;DHT22;5779;64.178;15.432;2024-03-17T02:58:12;-12.00;99.90
11446;DHT22;5779;64.178;15.432;2024-03-17T03:00:59;-11.80;99.90
11446;DHT22;5779;64.178;15.432;2024-03-17T03:03:45;-11.70;99.90
11446;DHT22;5779;64.178;15.432;2024-03-17T03:06:33;-11.70;99.90
11446;DHT22;5779;64.178;15.432;2024-03-17T03:09:20;-11.70;99.90
11446;DHT22;5779;64.178;15.432;2024-03-17T03:12:11;-11.60;99.90
11446;DHT22;5779;64.178;15.432;2024-03-17T03:14:59;-11.50;99.90
11446;DHT22;5779;64.178;15.432;2024-03-17T03:17:46;-11.40;99.90
11446;DHT22;5779;64.178;15.432;2024-03-17T03:20:33;-11.30;99.90
11446;DHT22;5779;64.178;15.432;2024-03-17T03:23:20;-11.60;99.90
11446;DHT22;5779;64.178;15.432;2024-03-17T03:26:07;-11.90;99.90
11446;DHT22;5779;64.178;15.432;2024-03-17T03:28:55;-12.10;99.90
11446;DHT22;5779;64.178;15.432;2024-03-17T03:31:43;-12.20;99.90
11446;DHT22;5779;64.178;15.432;2024-03-17T03:34:29;-12.10;99.90
11446;DHT22;5779;64.178;15.432;2024-03-17T03:37:16;-12.10;99.90
11446;DHT22;5779;64.178;15.432;2024-03-17T03:40:03;-12.00;99.90
11446;DHT22;5779;64.178;15.432;2024-03-17T03:43:01;-11.90;99.90
11446;DHT22;5779;64.178;15.432;2024-03-17T03:45:48;-11.90;99.90
11446;DHT22;5779;64.178;15.432;2024-03-17T03:48:36;-11.90;99.90
11446;DHT22;5779;64.178;15.432;2024-03-17T03:51:23;-11.70;99.90
11446;DHT22;5779;64.178;15.432;2024-03-17T03:54:11;-11.70;99.90
11446;DHT22;5779;64.178;15.432;2024-03-17T03:56:58;-11.70;99.90
11446;DHT22;5779;64.178;15.432;2024-03-17T03:59:45;-11.60;99.90
11446;DHT22;5779;64.178;15.432;2024-03-17T04:02:32;-11.60;99.90
11446;DHT22;5779;64.178;15.432;2024-03-17T04:05:21;-11.70;99.90
11446;DHT22;5779;64.178;15.432;2024-03-17T04:08:08;-11.80;99.90
11446;DHT22;5779;64.178;15.432;2024-03-17T04:10:55;-12.10;99.90
11446;DHT22;5779;64.178;15.432;2024-03-17T04:13:41;-12.40;99.90
11446;DHT22;5779;64.178;15.432;2024-03-17T04:16:30;-12.40;99.90
11446;DHT22;5779;64.178;15.432;2024-03-17T04:19:17;-12.30;99.90
11446;DHT22;5779;64.178;15.432;2024-03-17T04:22:05;-12.20;99.90
11446;DHT22;5779;64.178;15.432;2024-03-17T04:24:52;-12.40;99.90
11446;DHT22;5779;64.178;15.432;2024-03-17T04:27:39;-12.50;99.90
11446;DHT22;5779;64.178;15.432;2024-03-17T04:30:26;-12.50;99.90
11446;DHT22;5779;64.178;15.432;2024-03-17T04:33:13;-12.50;99.90
11446;DHT22;5779;64.178;15.432;2024-03-17T04:36:02;-12.50;99.90
11446;DHT22;5779;64.178;15.432;2024-03-17T04:38:50;-12.50;99.90
11446;DHT22;5779;64.178;15.432;2024-03-17T04:41:40;-12.40;99.90
11446;DHT22;5779;64.178;15.432;2024-03-17T04:44:29;-12.80;99.90
11446;DHT22;5779;64.178;15.432;2024-03-17T04:47:15;-13.10;99.90
11446;DHT22;5779;64.178;15.432;2024-03-17T04:50:02;-13.00;99.90
11446;DHT22;5779;64.178;15.432;2024-03-17T04:52:49;-13.00;99.90
11446;DHT22;5779;64.178;15.432;2024-03-17T04:55:37;-12.90;99.90
11446;DHT22;5779;64.178;15.432;2024-03-17T04:58:24;-12.90;99.90
11446;DHT22;5779;64.178;15.432;2024-03-17T05:01:10;-13.40;99.90
11446;DHT22;5779;64.178;15.432;2024-03-17T05:03:58;-13.40;99.90
11446;DHT22;5779;64.178;15.432;2024-03-17T05:06:45;-13.10;99.90
11446;DHT22;5779;64.178;15.432;2024-03-17T05:09:32;-12.90;99.90
11446;DHT22;5779;64.178;15.432;2024-03-17T05:12:20;-12.80;99.90
11446;DHT22;5779;64.178;15.432;2024-03-17T05:15:08;-12.70;99.90
11446;DHT22;5779;64.178;15.432;2024-03-17T05:17:55;-12.70;99.90
11446;DHT22;5779;64.178;15.432;2024-03-17T05:20:42;-12.60;99.90
11446;DHT22;5779;64.178;15.432;2024-03-17T05:23:30;-12.60;99.90
11446;DHT22;5779;64.178;15.432;2024-03-17T05:26:16;-12.40;99.90
11446;DHT22;5779;64.178;15.432;2024-03-17T05:29:05;-12.40;99.90
11446;DHT22;5779;64.178;15.432;2024-03-17T05:31:52;-12.40;99.90
11446;DHT22;5779;64.178;15.432;2024-03-17T05:34:39;-13.10;99.90
11446;DHT22;5779;64.178;15.432;2024-03-17T05:37:26;-14.00;99.90
11446;DHT22;5779;64.178;15.432;2024-03-17T05:40:14;-14.10;99.90
11446;DHT22;5779;64.178;15.432;2024-03-17T05:43:00;-13.80;99.90
11446;DHT22;5779;64.178;15.432;2024-03-17T05:45:49;-13.60;99.90
11446;DHT22;5779;64.178;15.432;2024-03-17T05:48:37;-13.90;99.90
11446;DHT22;5779;64.178;15.432;2024-03-17T05:51:24;-14.00;99.90
11446;DHT22;5779;64.178;15.432;2024-03-17T05:54:12;-13.90;99.90
11446;DHT22;5779;64.178;15.432;2024-03-17T05:57:00;-13.50;99.90
11446;DHT22;5779;64.178;15.432;2024-03-17T05:59:49;-13.50;99.90
11446;DHT22;5779;64.178;15.432;2024-03-17T06:22:06;-12.10;99.90
11446;DHT22;5779;64.178;15.432;2024-03-17T06:24:54;-11.90;99.90
11446;DHT22;5779;64.178;15.432;2024-03-17T06:35:37;-12.20;99.90
11446;DHT22;5779;64.178;15.432;2024-03-17T06:50:09;-11.20;99.90
11446;DHT22;5779;64.178;15.432;2024-03-17T07:04:36;-10.50;99.90
11446;DHT22;5779;64.178;15.432;2024-03-17T07:30:48;-8.70;99.90
11446;DHT22;5779;64.178;15.432;2024-03-17T07:56:31;-8.50;99.90
11446;DHT22;5779;64.178;15.432;2024-03-17T08:06:52;-7.90;99.90
11446;DHT22;5779;64.178;15.432;2024-03-17T08:13:27;-7.20;99.90
11446;DHT22;5779;64.178;15.432;2024-03-17T08:16:18;-6.90;99.90
11446;DHT22;5779;64.178;15.432;2024-03-17T08:19:05;-6.70;99.90
11446;DHT22;5779;64.178;15.432;2024-03-17T08:21:52;-6.70;99.90
11446;DHT22;5779;64.178;15.432;2024-03-17T08:24:39;-6.80;99.90
11446;DHT22;5779;64.178;15.432;2024-03-17T08:31:46;-6.50;99.90
11446;DHT22;5779;64.178;15.432;2024-03-17T08:38:23;-5.50;99.90
11446;DHT22;5779;64.178;15.432;2024-03-17T08:41:10;-5.10;99.90
11446;DHT22;5779;64.178;15.432;2024-03-17T08:43:58;-4.90;99.90
11446;DHT22;5779;64.178;15.432;2024-03-17T08:46:47;-4.60;99.90
11446;DHT22;5779;64.178;15.432;2024-03-17T09:16:36;-4.00;99.90
11446;DHT22;5779;64.178;15.432;2024-03-17T09:23:36;-3.40;99.90
11446;DHT22;5779;64.178;15.432;2024-03-17T09:45:32;-2.70;99.90
11446;DHT22;5779;64.178;15.432;2024-03-17T09:52:10;-2.70;99.90
11446;DHT22;5779;64.178;15.432;2024-03-17T09:59:03;-2.40;99.90
11446;DHT22;5779;64.178;15.432;2024-03-17T10:01:52;-2.70;99.90
11446;DHT22;5779;64.178;15.432;2024-03-17T10:04:39;-2.70;99.90
11446;DHT22;5779;64.178;15.432;2024-03-17T10:07:38;-2.60;99.90
11446;DHT22;5779;64.178;15.432;2024-03-17T10:25:40;-2.30;99.90
11446;DHT22;5779;64.178;15.432;2024-03-17T10:28:27;-2.00;99.90
11446;DHT22;5779;64.178;15.432;2024-03-17T10:34:44;-1.90;99.90
11446;DHT22;5779;64.178;15.432;2024-03-17T10:37:31;-1.50;99.90
11446;DHT22;5779;64.178;15.432;2024-03-17T10:40:18;-1.30;99.90
11446;DHT22;5779;64.178;15.432;2024-03-17T10:43:06;-1.10;99.90
11446;DHT22;5779;64.178;15.432;2024-03-17T10:57:45;-0.70;99.90
11446;DHT22;5779;64.178;15.432;2024-03-17T12:08:21;-1.80;99.90
11446;DHT22;5779;64.178;15.432;2024-03-17T13:10:54;0.10;99.90
11446;DHT22;5779;64.178;15.432;2024-03-17T13:25:25;0.10;99.90
11446;DHT22;5779;64.178;15.432;2024-03-17T13:40:07;0.10;99.90
11446;DHT22;5779;64.178;15.432;2024-03-17T13:50:36;0.10;99.90
11446;DHT22;5779;64.178;15.432;2024-03-17T14:04:49;0.50;99.90
11446;DHT22;5779;64.178;15.432;2024-03-17T14:07:36;0.40;99.80
11446;DHT22;5779;64.178;15.432;2024-03-17T14:10:23;0.30;99.90
11446;DHT22;5779;64.178;15.432;2024-03-17T14:13:13;0.30;99.90
11446;DHT22;5779;64.178;15.432;2024-03-17T14:15:59;0.30;99.90
11446;DHT22;5779;64.178;15.432;2024-03-17T14:18:46;0.50;99.90
11446;DHT22;5779;64.178;15.432;2024-03-17T14:21:34;0.40;99.90
11446;DHT22;5779;64.178;15.432;2024-03-17T14:24:23;0.40;99.90
11446;DHT22;5779;64.178;15.432;2024-03-17T14:27:12;0.70;99.90
11446;DHT22;5779;64.178;15.432;2024-03-17T14:29:59;0.50;99.90
11446;DHT22;5779;64.178;15.432;2024-03-17T14:32:46;0.60;99.90
11446;DHT22;5779;64.178;15.432;2024-03-17T14:35:33;0.60;99.90
11446;DHT22;5779;64.178;15.432;2024-03-17T14:38:23;0.80;99.90
11446;DHT22;5779;64.178;15.432;2024-03-17T14:41:10;1.00;99.90
11446;DHT22;5779;64.178;15.432;2024-03-17T14:43:57;1.00;99.90
11446;DHT22;5779;64.178;15.432;2024-03-17T14:46:43;0.80;99.90
11446;DHT22;5779;64.178;15.432;2024-03-17T14:49:32;0.80;99.90
11446;DHT22;5779;64.178;15.432;2024-03-17T14:52:19;1.30;99.90
11446;DHT22;5779;64.178;15.432;2024-03-17T14:55:09;1.40;99.90
11446;DHT22;5779;64.178;15.432;2024-03-17T14:57:56;1.10;99.90
11446;DHT22;5779;64.178;15.432;2024-03-17T15:00:43;1.00;99.70
11446;DHT22;5779;64.178;15.432;2024-03-17T15:03:33;0.30;99.90
11446;DHT22;5779;64.178;15.432;2024-03-17T15:06:20;0.20;99.90
11446;DHT22;5779;64.178;15.432;2024-03-17T15:09:08;0.40;99.90
11446;DHT22;5779;64.178;15.432;2024-03-17T15:11:56;0.30;98.90
11446;DHT22;5779;64.178;15.432;2024-03-17T15:14:43;0.20;99.90
11446;DHT22;5779;64.178;15.432;2024-03-17T15:17:32;0.40;99.90
11446;DHT22;5779;64.178;15.432;2024-03-17T15:20:20;0.30;99.60
11446;DHT22;5779;64.178;15.432;2024-03-17T15:23:08;0.10;99.90
11446;DHT22;5779;64.178;15.432;2024-03-17T15:25:59;-0.20;99.90
11446;DHT22;5779;64.178;15.432;2024-03-17T15:28:49;-0.20;99.90
11446;DHT22;5779;64.178;15.432;2024-03-17T15:31:36;-0.10;99.90
11446;DHT22;5779;64.178;15.432;2024-03-17T15:34:23;0.10;99.90
11446;DHT22;5779;64.178;15.432;2024-03-17T15:37:10;0.00;99.90
11446;DHT22;5779;64.178;15.432;2024-03-17T15:39:57;0.20;99.90
11446;DHT22;5779;64.178;15.432;2024-03-17T15:42:45;0.50;99.90
11446;DHT22;5779;64.178;15.432;2024-03-17T15:45:35;0.80;99.90
11446;DHT22;5779;64.178;15.432;2024-03-17T15:48:24;1.00;98.90
11446;DHT22;5779;64.178;15.432;2024-03-17T15:51:12;0.90;98.50
11446;DHT22;5779;64.178;15.432;2024-03-17T15:54:00;0.80;99.20
11446;DHT22;5779;64.178;15.432;2024-03-17T15:56:47;0.60;99.40
11446;DHT22;5779;64.178;15.432;2024-03-17T15:59:35;0.20;99.90
11446;DHT22;5779;64.178;15.432;2024-03-17T16:02:23;0.00;99.50
11446;DHT22;5779;64.178;15.432;2024-03-17T16:05:11;-0.20;99.90
11446;DHT22;5779;64.178;15.432;2024-03-17T16:07:59;-0.50;99.80
11446;DHT22;5779;64.178;15.432;2024-03-17T16:10:51;-0.60;99.90
11446;DHT22;5779;64.178;15.432;2024-03-17T16:13:40;-0.50;99.90
11446;DHT22;5779;64.178;15.432;2024-03-17T16:16:32;-0.40;99.90
11446;DHT22;5779;64.178;15.432;2024-03-17T16:19:23;-0.50;99.90
11446;DHT22;5779;64.178;15.432;2024-03-17T16:22:12;-0.50;99.90
11446;DHT22;5779;64.178;15.432;2024-03-17T16:24:59;-0.50;99.90
11446;DHT22;5779;64.178;15.432;2024-03-17T16:27:45;-0.60;99.90
11446;DHT22;5779;64.178;15.432;2024-03-17T16:30:33;-0.80;99.90
11446;DHT22;5779;64.178;15.432;2024-03-17T16:33:21;-1.00;99.90
11446;DHT22;5779;64.178;15.432;2024-03-17T16:36:09;-1.10;99.90
11446;DHT22;5779;64.178;15.432;2024-03-17T16:38:56;-1.10;99.90
11446;DHT22;5779;64.178;15.432;2024-03-17T16:41:44;-1.40;99.90
11446;DHT22;5779;64.178;15.432;2024-03-17T16:44:40;-1.50;99.90
11446;DHT22;5779;64.178;15.432;2024-03-17T16:47:31;-1.70;99.90
11446;DHT22;5779;64.178;15.432;2024-03-17T16:50:19;-1.90;99.90
11446;DHT22;5779;64.178;15.432;2024-03-17T16:53:08;-1.70;99.90
11446;DHT22;5779;64.178;15.432;2024-03-17T16:55:54;-1.90;99.90
11446;DHT22;5779;64.178;15.432;2024-03-17T16:58:41;-2.00;99.90
11446;DHT22;5779;64.178;15.432;2024-03-17T17:01:28;-2.30;99.90
11446;DHT22;5779;64.178;15.432;2024-03-17T17:04:14;-2.60;99.90
11446;DHT22;5779;64.178;15.432;2024-03-17T17:07:01;-2.60;99.90
11446;DHT22;5779;64.178;15.432;2024-03-17T17:09:49;-2.80;99.90
11446;DHT22;5779;64.178;15.432;2024-03-17T17:12:35;-2.90;99.90
11446;DHT22;5779;64.178;15.432;2024-03-17T17:15:22;-2.80;99.90
11446;DHT22;5779;64.178;15.432;2024-03-17T17:18:49;-2.80;99.90
11446;DHT22;5779;64.178;15.432;2024-03-17T17:21:36;-2.90;99.90
11446;DHT22;5779;64.178;15.432;2024-03-17T17:24:23;-3.00;99.90
11446;DHT22;5779;64.178;15.432;2024-03-17T17:27:13;-3.20;99.90
11446;DHT22;5779;64.178;15.432;2024-03-17T17:29:59;-3.30;99.90
11446;DHT22;5779;64.178;15.432;2024-03-17T17:32:47;-3.40;99.90
11446;DHT22;5779;64.178;15.432;2024-03-17T17:35:33;-3.50;99.90
11446;DHT22;5779;64.178;15.432;2024-03-17T17:38:22;-3.60;99.90
11446;DHT22;5779;64.178;15.432;2024-03-17T17:41:08;-3.60;99.90
11446;DHT22;5779;64.178;15.432;2024-03-17T17:44:00;-3.50;99.90
11446;DHT22;5779;64.178;15.432;2024-03-17T17:46:48;-3.60;99.90
11446;DHT22;5779;64.178;15.432;2024-03-17T17:49:35;-3.80;99.90
11446;DHT22;5779;64.178;15.432;2024-03-17T17:52:22;-3.80;99.90
11446;DHT22;5779;64.178;15.432;2024-03-17T17:55:09;-3.90;99.90
11446;DHT22;5779;64.178;15.432;2024-03-17T17:57:56;-4.00;99.90
11446;DHT22;5779;64.178;15.432;2024-03-17T18:00:45;-4.00;99.90
11446;DHT22;5779;64.178;15.432;2024-03-17T18:03:34;-4.00;99.90
11446;DHT22;5779;64.178;15.432;2024-03-17T18:06:21;-3.90;99.90
11446;DHT22;5779;64.178;15.432;2024-03-17T18:09:10;-3.80;99.90
11446;DHT22;5779;64.178;15.432;2024-03-17T18:12:04;-3.70;99.90
11446;DHT22;5779;64.178;15.432;2024-03-17T18:14:51;-3.60;99.90
11446;DHT22;5779;64.178;15.432;2024-03-17T18:17:39;-3.90;99.90
11446;DHT22;5779;64.178;15.432;2024-03-17T18:20:25;-3.90;99.90
11446;DHT22;5779;64.178;15.432;2024-03-17T18:23:13;-4.00;99.90
11446;DHT22;5779;64.178;15.432;2024-03-17T18:26:04;-4.10;99.90
11446;DHT22;5779;64.178;15.432;2024-03-17T18:28:54;-4.10;99.90
11446;DHT22;5779;64.178;15.432;2024-03-17T18:31:41;-4.00;99.90
11446;DHT22;5779;64.178;15.432;2024-03-17T18:34:29;-3.90;99.90
11446;DHT22;5779;64.178;15.432;2024-03-17T18:37:16;-3.80;99.90
11446;DHT22;5779;64.178;15.432;2024-03-17T18:40:05;-3.90;99.90
11446;DHT22;5779;64.178;15.432;2024-03-17T18:42:56;-3.90;99.90
11446;DHT22;5779;64.178;15.432;2024-03-17T18:45:42;-4.10;99.90
11446;DHT22;5779;64.178;15.432;2024-03-17T18:48:30;-4.10;99.90
11446;DHT22;5779;64.178;15.432;2024-03-17T18:51:19;-4.10;99.90
11446;DHT22;5779;64.178;15.432;2024-03-17T18:54:07;-4.20;99.90
11446;DHT22;5779;64.178;15.432;2024-03-17T18:56:56;-4.10;99.90
11446;DHT22;5779;64.178;15.432;2024-03-17T18:59:44;-4.10;99.90
11446;DHT22;5779;64.178;15.432;2024-03-17T19:02:31;-4.10;99.90
11446;DHT22;5779;64.178;15.432;2024-03-17T19:05:18;-4.10;99.90
11446;DHT22;5779;64.178;15.432;2024-03-17T19:08:07;-4.20;99.90
11446;DHT22;5779;64.178;15.432;2024-03-17T19:10:55;-4.30;99.90
11446;DHT22;5779;64.178;15.432;2024-03-17T19:13:42;-4.40;99.90
11446;DHT22;5779;64.178;15.432;2024-03-17T19:16:29;-4.30;99.90
11446;DHT22;5779;64.178;15.432;2024-03-17T19:19:15;-4.30;99.90
11446;DHT22;5779;64.178;15.432;2024-03-17T19:22:03;-4.20;99.90
11446;DHT22;5779;64.178;15.432;2024-03-17T19:24:52;-4.20;99.90
11446;DHT22;5779;64.178;15.432;2024-03-17T19:27:39;-4.10;99.90
11446;DHT22;5779;64.178;15.432;2024-03-17T19:30:26;-4.10;99.90
11446;DHT22;5779;64.178;15.432;2024-03-17T19:33:13;-4.10;99.90
11446;DHT22;5779;64.178;15.432;2024-03-17T19:35:59;-4.10;99.90
11446;DHT22;5779;64.178;15.432;2024-03-17T19:38:50;-4.10;99.90
11446;DHT22;5779;64.178;15.432;2024-03-17T19:41:39;-4.00;99.90
11446;DHT22;5779;64.178;15.432;2024-03-17T19:44:25;-3.90;99.90
11446;DHT22;5779;64.178;15.432;2024-03-17T19:47:12;-3.90;99.90
11446;DHT22;5779;64.178;15.432;2024-03-17T19:49:59;-3.90;99.90
11446;DHT22;5779;64.178;15.432;2024-03-17T19:52:47;-3.70;99.90
11446;DHT22;5779;64.178;15.432;2024-03-17T19:55:34;-3.40;99.90
11446;DHT22;5779;64.178;15.432;2024-03-17T19:58:22;-3.40;99.90
11446;DHT22;5779;64.178;15.432;2024-03-17T20:01:10;-3.30;99.90
11446;DHT22;5779;64.178;15.432;2024-03-17T20:04:01;-3.20;99.90
11446;DHT22;5779;64.178;15.432;2024-03-17T20:06:48;-3.20;99.90
11446;DHT22;5779;64.178;15.432;2024-03-17T20:09:35;-3.20;99.90
11446;DHT22;5779;64.178;15.432;2024-03-17T20:12:22;-3.10;99.90
11446;DHT22;5779;64.178;15.432;2024-03-17T20:15:11;-3.10;99.80
11446;DHT22;5779;64.178;15.432;2024-03-17T20:17:58;-2.90;99.30
11446;DHT22;5779;64.178;15.432;2024-03-17T20:20:46;-2.90;99.10
11446;DHT22;5779;64.178;15.432;2024-03-17T20:23:32;-2.90;98.30
11446;DHT22;5779;64.178;15.432;2024-03-17T20:26:20;-2.80;99.80
11446;DHT22;5779;64.178;15.432;2024-03-17T20:29:07;-2.80;98.50
11446;DHT22;5779;64.178;15.432;2024-03-17T20:31:56;-2.80;98.00
11446;DHT22;5779;64.178;15.432;2024-03-17T20:34:43;-2.80;98.80
11446;DHT22;5779;64.178;15.432;2024-03-17T20:37:30;-2.90;98.80
11446;DHT22;5779;64.178;15.432;2024-03-17T20:40:18;-2.80;99.40
11446;DHT22;5779;64.178;15.432;2024-03-17T20:43:05;-2.80;98.20
11446;DHT22;5779;64.178;15.432;2024-03-17T20:45:51;-2.90;98.80
11446;DHT22;5779;64.178;15.432;2024-03-17T20:48:40;-2.90;99.10
11446;DHT22;5779;64.178;15.432;2024-03-17T20:51:27;-3.20;98.60
11446;DHT22;5779;64.178;15.432;2024-03-17T20:54:15;-3.10;99.90
11446;DHT22;5779;64.178;15.432;2024-03-17T20:57:02;-3.00;99.90
11446;DHT22;5779;64.178;15.432;2024-03-17T20:59:49;-3.00;99.60
11446;DHT22;5779;64.178;15.432;2024-03-17T21:02:36;-3.00;99.40
11446;DHT22;5779;64.178;15.432;2024-03-17T21:05:26;-3.00;99.60
11446;DHT22;5779;64.178;15.432;2024-03-17T21:08:14;-3.00;99.90
11446;DHT22;5779;64.178;15.432;2024-03-17T21:11:01;-3.10;99.90
11446;DHT22;5779;64.178;15.432;2024-03-17T21:13:53;-3.20;99.90
11446;DHT22;5779;64.178;15.432;2024-03-17T21:16:42;-3.30;99.90
11446;DHT22;5779;64.178;15.432;2024-03-17T21:19:29;-3.10;99.70
11446;DHT22;5779;64.178;15.432;2024-03-17T21:22:17;-3.00;99.90
11446;DHT22;5779;64.178;15.432;2024-03-17T21:25:04;-3.20;99.70
11446;DHT22;5779;64.178;15.432;2024-03-17T21:27:52;-3.30;99.90
11446;DHT22;5779;64.178;15.432;2024-03-17T21:30:39;-3.10;99.70
11446;DHT22;5779;64.178;15.432;2024-03-17T21:33:26;-3.10;99.90
11446;DHT22;5779;64.178;15.432;2024-03-17T21:36:13;-3.00;99.90
11446;DHT22;5779;64.178;15.432;2024-03-17T21:39:02;-3.00;99.80
11446;DHT22;5779;64.178;15.432;2024-03-17T21:41:52;-2.80;99.90
11446;DHT22;5779;64.178;15.432;2024-03-17T21:44:39;-2.80;99.30
11446;DHT22;5779;64.178;15.432;2024-03-17T21:47:25;-2.90;99.10
11446;DHT22;5779;64.178;15.432;2024-03-17T21:50:12;-3.00;98.30
11446;DHT22;5779;64.178;15.432;2024-03-17T21:52:59;-3.10;99.50
11446;DHT22;5779;64.178;15.432;2024-03-17T21:55:54;-3.20;99.20
11446;DHT22;5779;64.178;15.432;2024-03-17T21:58:41;-3.10;99.10
11446;DHT22;5779;64.178;15.432;2024-03-17T22:01:28;-3.10;99.90
11446;DHT22;5779;64.178;15.432;2024-03-17T22:04:14;-3.10;98.70
11446;DHT22;5779;64.178;15.432;2024-03-17T22:07:01;-3.20;99.90
11446;DHT22;5779;64.178;15.432;2024-03-17T22:09:48;-3.20;99.90
11446;DHT22;5779;64.178;15.432;2024-03-17T22:12:36;-3.20;99.90
11446;DHT22;5779;64.178;15.432;2024-03-17T22:15:22;-3.20;99.90
11446;DHT22;5779;64.178;15.432;2024-03-17T22:18:09;-3.20;99.90
11446;DHT22;5779;64.178;15.432;2024-03-17T22:20:56;-3.30;99.90
11446;DHT22;5779;64.178;15.432;2024-03-17T22:23:43;-3.30;99.90
11446;DHT22;5779;64.178;15.432;2024-03-17T22:26:32;-3.40;99.90
11446;DHT22;5779;64.178;15.432;2024-03-17T22:29:21;-3.50;99.90
11446;DHT22;5779;64.178;15.432;2024-03-17T22:32:07;-3.50;99.90
11446;DHT22;5779;64.178;15.432;2024-03-17T22:34:54;-3.60;99.90
11446;DHT22;5779;64.178;15.432;2024-03-17T22:37:41;-3.70;99.90
11446;DHT22;5779;64.178;15.432;2024-03-17T22:40:32;-3.70;99.90
11446;DHT22;5779;64.178;15.432;2024-03-17T22:43:20;-3.70;99.90
11446;DHT22;5779;64.178;15.432;2024-03-17T22:46:10;-3.90;99.90
11446;DHT22;5779;64.178;15.432;2024-03-17T22:48:57;-3.80;99.90
11446;DHT22;5779;64.178;15.432;2024-03-17T22:51:46;-4.00;99.90
11446;DHT22;5779;64.178;15.432;2024-03-17T22:54:37;-3.90;99.90
11446;DHT22;5779;64.178;15.432;2024-03-17T22:57:24;-4.00;99.90
11446;DHT22;5779;64.178;15.432;2024-03-17T23:00:12;-4.10;99.90
11446;DHT22;5779;64.178;15.432;2024-03-17T23:03:19;-4.10;99.90
11446;DHT22;5779;64.178;15.432;2024-03-17T23:06:07;-4.10;99.90
11446;DHT22;5779;64.178;15.432;2024-03-17T23:08:54;-4.10;99.90
11446;DHT22;5779;64.178;15.432;2024-03-17T23:11:41;-4.10;99.90
11446;DHT22;5779;64.178;15.432;2024-03-17T23:14:28;-4.20;99.90
11446;DHT22;5779;64.178;15.432;2024-03-17T23:17:15;-4.30;99.90
11446;DHT22;5779;64.178;15.432;2024-03-17T23:20:04;-4.50;99.90
11446;DHT22;5779;64.178;15.432;2024-03-17T23:22:54;-4.50;99.90
11446;DHT22;5779;64.178;15.432;2024-03-17T23:25:41;-4.50;99.90
11446;DHT22;5779;64.178;15.432;2024-03-17T23:28:28;-4.50;99.90
11446;DHT22;5779;64.178;15.432;2024-03-17T23:31:15;-4.60;99.90
11446;DHT22;5779;64.178;15.432;2024-03-17T23:34:02;-4.50;99.90
11446;DHT22;5779;64.178;15.432;2024-03-17T23:36:50;-4.50;99.90
11446;DHT22;5779;64.178;15.432;2024-03-17T23:39:37;-4.50;99.90
11446;DHT22;5779;64.178;15.432;2024-03-17T23:42:24;-4.50;99.90
11446;DHT22;5779;64.178;15.432;2024-03-17T23:45:11;-4.40;99.90
11446;DHT22;5779;64.178;15.432;2024-03-17T23:47:57;-4.50;99.90
11446;DHT22;5779;64.178;15.432;2024-03-17T23:50:44;-4.60;99.90
11446;DHT22;5779;64.178;15.432;2024-03-17T23:53:32;-4.70;99.90